Time;durP1;ratioP1;P1;durP2;ratioP2;P2;SDS_P1;SDS_P2;PMS_P1;PMS_P2;Temp;Humidity;BMP_temperature;BMP_pressure;BME280_temperature;BME280_humidity;BME280_pressure;Samples;Min_cycle;Max_cycle;Signal;HPM_P1;HPM_P2
2021/09/02 00:00:56;;;;;;;8.23;4.68;;;;;;;18.28;63.85;103000.75;5060816;28;20042;-49
2021/09/02 00:03:22;;;;;;;9.13;4.63;;;;;;;18.28;62.71;103000.75;5069361;28;20085;-51
2021/09/02 00:05:47;;;;;;;9.48;4.90;;;;;;;18.28;63.74;102992.84;5064425;28;20668;-48
2021/09/02 00:08:12;;;;;;;7.55;4.30;;;;;;;18.27;64.53;102994.59;5066086;28;20364;-48
2021/09/02 00:10:38;;;;;;;9.05;5.10;;;;;;;18.19;66.96;102996.19;5063707;28;20023;-50
2021/09/02 00:13:03;;;;;;;8.20;5.28;;;;;;;18.12;67.39;102994.31;5068889;28;20020;-49
2021/09/02 00:15:29;;;;;;;7.82;4.97;;;;;;;18.05;68.36;102990.69;5041714;28;20502;-49
2021/09/02 00:17:55;;;;;;;9.00;5.50;;;;;;;18.02;68.47;102990.66;5066789;28;20060;-48
2021/09/02 00:20:20;;;;;;;8.18;4.93;;;;;;;18.00;67.57;102994.13;5064055;28;20636;-52
2021/09/02 00:22:46;;;;;;;10.40;5.60;;;;;;;17.96;66.89;102990.56;5067735;28;20122;-48
2021/09/02 00:25:11;;;;;;;9.18;5.25;;;;;;;17.96;65.78;102993.19;5066255;28;20017;-48
2021/09/02 00:27:37;;;;;;;12.05;5.50;;;;;;;17.96;65.42;102995.84;5063745;28;20113;-52
2021/09/02 00:30:04;;;;;;;11.57;5.78;;;;;;;17.98;65.13;102994.13;5066282;28;20569;-51
2021/09/02 00:32:29;;;;;;;8.68;5.45;;;;;;;17.97;67.51;102989.72;5046888;28;20067;-47
2021/09/02 00:34:54;;;;;;;10.30;5.50;;;;;;;17.94;68.18;102983.47;5063626;28;20032;-50
2021/09/02 00:37:20;;;;;;;10.00;5.30;;;;;;;17.93;68.26;102984.38;5051178;28;20510;-48
2021/09/02 00:39:45;;;;;;;9.38;5.75;;;;;;;17.88;69.32;102989.53;5071900;28;20531;-49
2021/09/02 00:42:11;;;;;;;9.80;5.72;;;;;;;17.87;68.29;102989.53;5064425;28;20526;-49
2021/09/02 00:44:41;;;;;;;9.25;5.72;;;;;;;17.86;69.35;102988.66;5074418;28;20396;-47
2021/09/02 00:47:09;;;;;;;9.13;5.50;;;;;;;17.85;68.30;102986.88;5069347;28;20095;-49
2021/09/02 00:49:35;;;;;;;10.32;5.65;;;;;;;17.88;68.79;102975.44;5052579;28;20036;-49
2021/09/02 00:52:08;;;;;;;8.15;5.50;;;;;;;17.85;69.17;102978.94;5054562;28;20358;-48
2021/09/02 00:54:33;;;;;;;8.65;5.53;;;;;;;17.81;69.21;102978.00;5070018;28;20042;-48
2021/09/02 00:56:58;;;;;;;9.85;5.70;;;;;;;17.81;69.16;102977.09;5049809;28;20032;-53
2021/09/02 00:59:27;;;;;;;8.95;5.45;;;;;;;17.77;67.09;102970.91;5052990;28;20047;-52
2021/09/02 01:01:53;;;;;;;7.78;5.15;;;;;;;17.80;66.91;102962.16;5069258;28;20063;-50
2021/09/02 01:04:19;;;;;;;9.55;5.25;;;;;;;17.84;66.57;102966.59;5065412;28;20028;-47
2021/09/02 01:06:46;;;;;;;10.38;5.05;;;;;;;17.84;65.07;102964.88;5053727;28;20017;-47
2021/09/02 01:09:12;;;;;;;8.38;5.22;;;;;;;17.89;64.52;102956.13;5049138;28;20101;-47
2021/09/02 01:11:37;;;;;;;10.57;5.20;;;;;;;17.91;64.86;102952.66;5066825;28;20890;-49
2021/09/02 01:14:03;;;;;;;8.90;4.90;;;;;;;17.88;64.23;102957.88;5070260;28;20480;-48
2021/09/02 01:16:28;;;;;;;7.57;4.97;;;;;;;17.90;64.76;102956.16;5069013;28;20769;-49
2021/09/02 01:18:54;;;;;;;8.90;4.88;;;;;;;17.90;64.79;102958.78;5066169;28;20047;-49
2021/09/02 01:21:20;;;;;;;7.30;4.88;;;;;;;17.86;63.60;102950.81;5066578;28;20147;-49
2021/09/02 01:23:45;;;;;;;8.20;4.90;;;;;;;17.90;64.04;102950.00;5052771;28;20047;-50
2021/09/02 01:26:18;;;;;;;9.07;5.15;;;;;;;17.84;66.11;102961.34;5069037;28;20495;-50
2021/09/02 01:28:44;;;;;;;8.65;5.00;;;;;;;17.87;63.25;102955.22;5051087;28;20085;-48
2021/09/02 01:31:18;;;;;;;9.20;5.05;;;;;;;17.89;63.83;102946.47;5067808;28;20044;-49
2021/09/02 01:33:44;;;;;;;11.57;5.25;;;;;;;17.93;62.52;102948.28;5072450;28;20562;-47
2021/09/02 01:36:10;;;;;;;8.50;5.80;;;;;;;17.97;62.89;102958.03;5067696;28;20024;-49
2021/09/02 01:38:36;;;;;;;11.95;5.43;;;;;;;18.00;62.81;102952.78;5064538;28;20586;-49
2021/09/02 01:41:02;;;;;;;10.10;5.13;;;;;;;18.02;63.81;102952.81;5065834;28;20024;-50
2021/09/02 01:43:27;;;;;;;12.57;5.70;;;;;;;18.01;63.52;102951.94;5062703;28;20677;-48
2021/09/02 01:45:53;;;;;;;12.75;5.88;;;;;;;17.98;66.06;102954.53;5071537;28;20392;-50
2021/09/02 01:48:18;;;;;;;9.57;5.65;;;;;;;17.98;65.76;102957.19;5067658;28;20115;-48
2021/09/02 01:50:44;;;;;;;10.68;6.05;;;;;;;17.99;64.33;102956.28;5065694;28;20063;-48
2021/09/02 01:53:13;;;;;;;9.88;6.05;;;;;;;17.99;65.53;102958.94;5066200;28;20132;-50
2021/09/02 01:55:39;;;;;;;9.35;5.78;;;;;;;17.94;65.35;102955.34;5049933;28;20510;-47
2021/09/02 01:58:05;;;;;;;8.90;5.55;;;;;;;17.91;66.62;102959.69;5066680;28;20131;-48
2021/09/02 02:00:31;;;;;;;10.50;5.72;;;;;;;17.88;67.54;102959.63;5054703;28;20036;-50
2021/09/02 02:02:56;;;;;;;10.50;6.00;;;;;;;17.84;68.71;102969.25;5071012;28;20035;-48
2021/09/02 02:05:23;;;;;;;14.70;6.50;;;;;;;17.81;64.91;102958.63;5070023;28;20505;-48
2021/09/02 02:07:48;;;;;;;10.80;5.88;;;;;;;17.82;68.05;102958.66;5069130;28;20110;-49
2021/09/02 02:10:18;;;;;;;13.15;6.07;;;;;;;17.80;69.26;102955.13;5069665;28;20061;-51
2021/09/02 02:12:44;;;;;;;10.27;5.60;;;;;;;17.78;64.94;102950.69;5067348;28;20028;-51
2021/09/02 02:15:10;;;;;;;11.05;6.00;;;;;;;17.81;64.44;102954.25;5067994;28;20559;-52
2021/09/02 02:17:36;;;;;;;9.73;5.90;;;;;;;17.83;65.19;102956.91;5052019;28;20038;-47
2021/09/02 02:20:02;;;;;;;10.30;5.38;;;;;;;17.82;65.70;102945.47;5064939;28;20123;-52
2021/09/02 02:22:28;;;;;;;12.77;6.32;;;;;;;17.80;65.81;102947.22;5067452;28;20502;-50
2021/09/02 02:24:53;;;;;;;12.90;5.90;;;;;;;17.71;62.27;102948.78;5066957;28;20028;-48
2021/09/02 02:27:18;;;;;;;10.68;6.03;;;;;;;17.78;62.63;102951.56;5065289;28;20020;-49
2021/09/02 02:29:44;;;;;;;10.43;6.00;;;;;;;17.81;63.51;102946.31;5070960;28;20107;-49
2021/09/02 02:32:09;;;;;;;10.70;5.60;;;;;;;17.78;60.99;102948.03;5068993;28;20020;-49
2021/09/02 02:34:35;;;;;;;9.68;5.80;;;;;;;17.81;61.87;102941.03;5064735;28;20048;-47
2021/09/02 02:37:00;;;;;;;9.02;5.20;;;;;;;17.84;60.89;102943.75;5064332;28;20124;-48
2021/09/02 02:39:25;;;;;;;9.60;5.53;;;;;;;17.86;62.19;102935.88;5065547;28;20119;-49
2021/09/02 02:41:51;;;;;;;10.55;5.50;;;;;;;17.86;60.17;102942.91;5068889;28;20430;-49
2021/09/02 02:44:16;;;;;;;9.40;5.60;;;;;;;17.82;60.85;102945.47;5070634;28;20117;-47
2021/09/02 02:46:41;;;;;;;12.25;5.25;;;;;;;17.84;61.05;102946.41;5066077;28;21612;-50
2021/09/02 02:49:07;;;;;;;11.73;5.78;;;;;;;17.88;61.48;102938.50;5070033;28;20611;-51
2021/09/02 02:51:36;;;;;;;10.90;5.60;;;;;;;17.82;63.93;102937.56;5070343;28;20359;-49
2021/09/02 02:54:02;;;;;;;10.65;6.03;;;;;;;17.77;62.16;102941.88;5068579;28;20062;-50
2021/09/02 02:56:28;;;;;;;12.73;5.88;;;;;;;17.78;63.84;102938.38;5052351;28;20028;-48
2021/09/02 02:58:53;;;;;;;10.60;6.35;;;;;;;17.77;64.00;102935.72;5068288;28;20114;-49
2021/09/02 03:01:19;;;;;;;11.63;6.07;;;;;;;17.78;63.77;102940.13;5064354;28;20024;-48
2021/09/02 03:03:44;;;;;;;12.05;6.03;;;;;;;17.74;65.93;102946.22;5066839;28;20082;-49
2021/09/02 03:06:11;;;;;;;13.27;6.28;;;;;;;17.72;65.60;102945.31;5048624;28;20028;-47
2021/09/02 03:08:37;;;;;;;11.80;6.32;;;;;;;17.73;64.95;102952.34;5049974;28;20062;-49
2021/09/02 03:11:02;;;;;;;11.80;5.90;;;;;;;17.72;64.26;102946.19;5069120;28;20530;-52
2021/09/02 03:13:28;;;;;;;11.45;5.78;;;;;;;17.72;64.02;102937.38;5048952;28;20101;-50
2021/09/02 03:15:53;;;;;;;10.15;5.95;;;;;;;17.72;64.43;102935.63;5064455;28;20036;-47
2021/09/02 03:18:19;;;;;;;11.88;6.10;;;;;;;17.67;66.40;102937.31;5067459;28;20042;-48
2021/09/02 03:20:44;;;;;;;11.80;6.20;;;;;;;17.60;65.89;102940.69;5071138;28;20483;-48
2021/09/02 03:23:09;;;;;;;10.43;5.93;;;;;;;17.61;64.85;102941.59;5068461;28;20431;-49
2021/09/02 03:25:35;;;;;;;11.23;5.85;;;;;;;17.64;65.56;102942.53;5068167;28;20088;-47
2021/09/02 03:28:00;;;;;;;11.60;6.32;;;;;;;17.62;66.00;102933.72;5068812;28;20741;-50
2021/09/02 03:30:25;;;;;;;13.05;6.32;;;;;;;17.61;67.42;102931.03;5066596;28;20444;-50
2021/09/02 03:32:51;;;;;;;12.95;6.35;;;;;;;17.57;68.06;102930.06;5069153;28;20542;-49
2021/09/02 03:35:16;;;;;;;12.30;6.45;;;;;;;17.58;67.80;102937.09;5065675;28;21040;-46
2021/09/02 03:37:42;;;;;;;11.55;6.45;;;;;;;17.52;69.02;102937.00;5067193;28;20028;-48
2021/09/02 03:40:08;;;;;;;12.38;6.47;;;;;;;17.51;67.39;102931.69;5072641;28;20020;-49
2021/09/02 03:42:33;;;;;;;10.80;5.85;;;;;;;17.55;66.96;102925.63;5066254;28;20036;-52
2021/09/02 03:44:59;;;;;;;11.75;6.55;;;;;;;17.55;66.13;102930.91;5067822;28;20054;-50
2021/09/02 03:47:24;;;;;;;14.73;6.47;;;;;;;17.55;68.41;102926.53;5064458;28;20016;-48
2021/09/02 03:49:49;;;;;;;13.15;6.20;;;;;;;17.47;67.26;102922.84;5067570;28;20461;-48
2021/09/02 03:52:15;;;;;;;11.45;6.80;;;;;;;17.42;69.02;102921.88;5045445;28;20578;-49
2021/09/02 03:54:40;;;;;;;10.25;6.30;;;;;;;17.37;68.41;102918.28;5046470;28;20629;-49
2021/09/02 03:57:05;;;;;;;10.60;6.07;;;;;;;17.37;68.42;102913.91;5043980;28;20473;-47
2021/09/02 03:59:31;;;;;;;11.75;6.35;;;;;;;17.31;69.66;102920.81;5048158;28;20082;-51
2021/09/02 04:01:56;;;;;;;13.05;6.60;;;;;;;17.28;69.98;102911.09;5044325;28;20024;-48
2021/09/02 04:04:21;;;;;;;12.82;6.45;;;;;;;17.29;68.26;102911.97;5047184;28;20395;-49
2021/09/02 04:06:47;;;;;;;11.23;6.63;;;;;;;17.26;70.11;102914.56;5050023;28;20172;-48
2021/09/02 04:09:12;;;;;;;12.73;6.63;;;;;;;17.28;69.86;102915.47;5045053;28;20190;-49
2021/09/02 04:11:37;;;;;;;11.32;6.57;;;;;;;17.23;70.88;102910.13;5044649;28;20536;-48
2021/09/02 04:14:03;;;;;;;12.65;6.75;;;;;;;17.19;71.56;102915.31;5050280;28;20429;-51
2021/09/02 04:16:28;;;;;;;16.70;6.63;;;;;;;17.14;71.37;102911.72;5049112;28;20597;-48
2021/09/02 04:18:54;;;;;;;12.20;6.80;;;;;;;17.10;71.46;102916.03;5052247;28;20139;-47
2021/09/02 04:21:19;;;;;;;12.75;7.05;;;;;;;17.09;71.65;102905.44;5052276;28;20082;-46
2021/09/02 04:23:46;;;;;;;14.38;6.72;;;;;;;17.04;72.06;102911.53;5047088;28;20028;-49
2021/09/02 04:26:12;;;;;;;13.10;7.00;;;;;;;17.04;72.54;102902.72;5053302;28;20039;-51
2021/09/02 04:28:37;;;;;;;10.63;6.80;;;;;;;17.08;72.03;102907.19;5048486;28;20028;-47
2021/09/02 04:31:02;;;;;;;11.25;6.93;;;;;;;17.10;71.29;102907.22;5051878;28;20035;-49
2021/09/02 04:33:29;;;;;;;13.32;7.28;;;;;;;17.09;71.52;102905.44;5049069;28;20177;-47
2021/09/02 04:35:55;;;;;;;13.88;6.90;;;;;;;17.11;71.35;102911.63;5051736;28;20059;-51
2021/09/02 04:38:21;;;;;;;12.70;7.50;;;;;;;17.13;70.97;102913.47;5049601;28;20496;-50
2021/09/02 04:40:47;;;;;;;12.32;6.93;;;;;;;17.12;71.13;102918.69;5047148;28;20116;-49
2021/09/02 04:43:13;;;;;;;12.80;5.97;;;;;;;17.14;68.56;102909.94;5048106;28;20549;-50
2021/09/02 04:45:38;;;;;;;14.95;6.35;;;;;;;17.16;65.61;102912.59;5053805;28;20057;-49
2021/09/02 04:48:21;;;;;;;12.93;6.30;;;;;;;17.21;67.56;102913.56;5042137;28;20252;-49
2021/09/02 04:50:49;;;;;;;13.25;6.40;;;;;;;17.22;66.32;102918.88;5047105;28;20415;-48
2021/09/02 04:53:14;;;;;;;11.55;6.43;;;;;;;17.25;66.40;102915.44;5064006;28;20040;-48
2021/09/02 04:55:40;;;;;;;10.50;6.43;;;;;;;17.26;68.04;102911.94;5066841;28;20907;-49
2021/09/02 04:58:07;;;;;;;11.63;6.63;;;;;;;17.22;70.30;102915.34;5068585;28;20043;-49
2021/09/02 05:00:33;;;;;;;13.65;6.60;;;;;;;17.22;69.27;102921.53;5071105;28;20063;-48
2021/09/02 05:02:58;;;;;;;13.18;6.82;;;;;;;17.22;67.67;102925.91;5066919;28;20034;-49
2021/09/02 05:05:24;;;;;;;12.30;6.40;;;;;;;17.23;68.08;102919.78;5069536;28;20016;-48
2021/09/02 05:07:49;;;;;;;11.25;5.97;;;;;;;17.26;67.89;102915.44;5063840;28;20464;-49
2021/09/02 05:10:14;;;;;;;12.48;6.70;;;;;;;17.31;68.84;102918.19;5065051;28;20114;-49
2021/09/02 05:12:40;;;;;;;11.65;6.53;;;;;;;17.21;70.04;102926.75;5052717;28;20103;-48
2021/09/02 05:15:07;;;;;;;14.07;7.22;;;;;;;17.19;71.45;102931.13;5069589;28;20035;-47
2021/09/02 05:17:33;;;;;;;13.02;7.15;;;;;;;17.18;71.62;102922.34;5067035;28;20107;-47
2021/09/02 05:19:58;;;;;;;13.18;7.07;;;;;;;17.20;71.59;102925.00;5071036;28;20395;-49
2021/09/02 05:22:23;;;;;;;12.90;7.03;;;;;;;17.19;69.43;102912.69;5067751;28;20040;-49
2021/09/02 05:24:49;;;;;;;10.57;6.18;;;;;;;17.24;68.69;102914.53;5071966;28;20024;-49
2021/09/02 05:27:14;;;;;;;12.50;6.90;;;;;;;17.23;66.20;102914.50;5050716;28;20055;-49
2021/09/02 05:29:40;;;;;;;20.27;7.90;;;;;;;17.36;67.49;102908.59;5033048;28;20366;-49
2021/09/02 05:32:06;;;;;;;12.65;6.97;;;;;;;17.45;67.33;102912.28;5071421;28;20023;-49
2021/09/02 05:34:31;;;;;;;13.13;7.20;;;;;;;17.54;68.65;102913.31;5067119;28;20032;-47
2021/09/02 05:36:57;;;;;;;14.45;7.15;;;;;;;17.62;68.35;102912.63;5068725;28;20028;-52
2021/09/02 05:39:22;;;;;;;12.35;6.85;;;;;;;17.57;69.52;102918.63;5070461;28;20531;-47
2021/09/02 05:41:48;;;;;;;16.65;7.63;;;;;;;17.51;69.81;102918.50;5049460;28;20442;-51
2021/09/02 05:44:14;;;;;;;13.10;6.88;;;;;;;17.49;70.22;102918.50;5069954;28;20157;-46
2021/09/02 05:46:39;;;;;;;16.50;7.68;;;;;;;17.48;68.74;102915.84;5065040;28;20039;-48
2021/09/02 05:49:05;;;;;;;14.50;7.38;;;;;;;17.53;69.88;102911.53;5064050;28;20044;-48
2021/09/02 05:51:30;;;;;;;14.00;7.18;;;;;;;17.58;68.44;102913.38;5069444;28;20546;-47
2021/09/02 05:53:56;;;;;;;14.77;7.90;;;;;;;17.64;67.04;102915.25;5072895;28;20052;-48
2021/09/02 05:56:21;;;;;;;14.65;8.00;;;;;;;17.71;67.13;102910.13;5066269;28;20071;-48
2021/09/02 05:58:46;;;;;;;14.65;7.80;;;;;;;17.77;65.93;102915.50;5065010;28;20485;-48
2021/09/02 06:01:12;;;;;;;18.58;8.57;;;;;;;17.86;65.60;102916.50;5067984;28;20039;-47
2021/09/02 06:03:37;;;;;;;17.48;8.88;;;;;;;17.91;66.84;102913.06;5064930;28;20035;-47
2021/09/02 06:06:02;;;;;;;14.13;8.05;;;;;;;17.93;68.96;102913.09;5067307;28;20032;-49
2021/09/02 06:08:28;;;;;;;18.05;8.00;;;;;;;18.02;66.62;102913.22;5064482;28;20031;-50
2021/09/02 06:10:55;;;;;;;18.15;8.05;;;;;;;18.04;66.27;102906.22;5068219;28;20031;-51
2021/09/02 06:13:20;;;;;;;15.73;8.60;;;;;;;18.05;65.20;102910.66;5070911;28;20027;-50
2021/09/02 06:15:46;;;;;;;17.08;8.57;;;;;;;18.15;64.99;102910.81;5063650;28;20023;-47
2021/09/02 06:18:11;;;;;;;18.08;8.73;;;;;;;18.12;64.74;102921.31;5068930;28;20445;-47
2021/09/02 06:20:37;;;;;;;17.27;8.60;;;;;;;18.20;64.41;102917.03;5064722;28;20038;-49
2021/09/02 06:23:04;;;;;;;16.95;8.23;;;;;;;18.33;64.30;102923.38;5067461;28;20032;-50
2021/09/02 06:25:29;;;;;;;17.70;9.07;;;;;;;18.30;64.45;102925.94;5067613;28;20290;-49
2021/09/02 06:27:54;;;;;;;19.55;8.93;;;;;;;18.37;65.62;102924.28;5063838;28;20155;-53
2021/09/02 06:30:20;;;;;;;17.15;8.88;;;;;;;18.44;65.29;102920.88;5067386;28;20135;-46
2021/09/02 06:32:45;;;;;;;23.77;8.90;;;;;;;18.45;64.15;102926.19;5065308;28;20046;-52
2021/09/02 06:35:10;;;;;;;19.92;9.02;;;;;;;18.57;64.22;102920.19;5065313;28;20032;-48
2021/09/02 06:37:36;;;;;;;18.88;8.68;;;;;;;18.66;64.83;102920.34;5069704;28;20539;-47
2021/09/02 06:40:02;;;;;;;22.20;9.15;;;;;;;18.61;63.34;102922.91;5064574;28;20474;-53
2021/09/02 06:42:28;;;;;;;18.45;8.65;;;;;;;18.68;63.16;102920.34;5067602;28;20111;-48
2021/09/02 06:44:53;;;;;;;18.10;8.40;;;;;;;18.78;65.58;102923.13;5063995;28;20683;-48
2021/09/02 06:47:18;;;;;;;19.65;8.63;;;;;;;18.95;64.28;102920.69;5065694;28;20031;-46
2021/09/02 06:49:44;;;;;;;19.67;8.50;;;;;;;18.93;61.99;102923.28;5063567;28;20032;-46
2021/09/02 06:52:09;;;;;;;20.27;8.75;;;;;;;18.98;61.19;102918.03;5068932;28;20127;-46
2021/09/02 06:54:34;;;;;;;20.27;8.70;;;;;;;19.01;60.75;102921.63;5066594;28;20884;-50
2021/09/02 06:57:00;;;;;;;21.52;8.63;;;;;;;18.99;60.37;102909.25;5062377;28;20062;-48
2021/09/02 06:59:25;;;;;;;16.38;8.32;;;;;;;19.17;60.45;102913.84;5066398;28;20111;-48
2021/09/02 07:01:51;;;;;;;16.38;8.38;;;;;;;19.28;61.71;102921.00;5067978;28;20500;-46
2021/09/02 07:04:16;;;;;;;18.73;7.97;;;;;;;19.30;58.96;102921.03;5067859;28;20502;-47
2021/09/02 07:06:42;;;;;;;16.20;8.10;;;;;;;19.45;60.14;102921.19;5068268;28;20351;-48
2021/09/02 07:09:08;;;;;;;15.43;8.20;;;;;;;19.51;58.35;102921.28;5062940;28;20089;-48
2021/09/02 07:11:33;;;;;;;16.83;7.47;;;;;;;19.57;56.89;102915.16;5057740;28;20024;-49
2021/09/02 07:13:58;;;;;;;17.65;7.95;;;;;;;19.67;57.91;102917.00;5062630;28;20055;-47
2021/09/02 07:16:24;;;;;;;20.48;7.95;;;;;;;19.64;56.77;102909.91;5065457;28;20372;-47
2021/09/02 07:18:49;;;;;;;14.15;7.25;;;;;;;19.74;55.91;102919.72;5071551;28;20024;-50
2021/09/02 07:21:25;;;;;;;16.85;6.85;;;;;;;19.67;56.12;102912.59;5045929;28;20115;-55
2021/09/02 07:23:51;;;;;;;16.60;6.93;;;;;;;19.68;55.87;102917.03;5060539;28;20032;-53
2021/09/02 07:26:16;;;;;;;14.65;6.95;;;;;;;19.64;55.75;102917.00;5029428;28;20020;-47
2021/09/02 07:28:42;;;;;;;15.32;6.78;;;;;;;19.67;54.63;102911.72;5065854;28;20081;-48
2021/09/02 07:31:07;;;;;;;12.77;6.20;;;;;;;19.69;55.94;102923.19;5070122;28;20017;-50
2021/09/02 07:33:32;;;;;;;14.32;6.15;;;;;;;19.53;54.94;102926.56;5062337;28;20115;-48
2021/09/02 07:35:58;;;;;;;12.40;6.07;;;;;;;19.64;53.57;102927.56;5069825;28;20440;-49
2021/09/02 07:38:23;;;;;;;10.93;5.75;;;;;;;19.62;53.17;102914.31;5066120;28;20028;-47
2021/09/02 07:40:49;;;;;;;10.40;5.70;;;;;;;19.64;53.54;102920.50;5069134;28;20110;-50
2021/09/02 07:43:14;;;;;;;13.15;5.57;;;;;;;19.85;53.95;102925.09;5064890;28;20024;-48
2021/09/02 07:45:39;;;;;;;11.25;5.57;;;;;;;19.82;53.50;102931.22;5067462;28;20565;-52
2021/09/02 07:48:05;;;;;;;12.00;5.82;;;;;;;19.97;53.25;102932.22;5065845;28;20060;-47
2021/09/02 07:50:31;;;;;;;14.75;6.40;;;;;;;19.95;53.03;102932.22;5066232;28;20035;-50
2021/09/02 07:52:56;;;;;;;12.05;5.93;;;;;;;20.03;53.18;102942.88;5065973;28;20921;-48
2021/09/02 07:55:21;;;;;;;12.32;6.07;;;;;;;20.01;53.29;102937.53;5069038;28;20149;-48
2021/09/02 07:57:47;;;;;;;13.43;6.68;;;;;;;20.01;54.09;102937.53;5071195;28;20036;-51
2021/09/02 08:00:14;;;;;;;12.80;6.25;;;;;;;20.04;53.92;102937.59;5056492;28;20028;-50
2021/09/02 08:02:39;;;;;;;13.25;6.28;;;;;;;20.16;56.21;102934.13;5070842;28;20039;-49
2021/09/02 08:05:05;;;;;;;12.63;6.38;;;;;;;20.21;54.30;102930.63;5052486;28;20110;-52
2021/09/02 08:07:30;;;;;;;16.95;6.70;;;;;;;20.20;54.34;102936.81;5068231;28;20746;-49
2021/09/02 08:09:56;;;;;;;12.75;6.20;;;;;;;20.20;54.51;102941.22;5065332;28;20039;-52
2021/09/02 08:12:21;;;;;;;16.02;6.70;;;;;;;20.35;53.99;102946.66;5071819;28;20028;-50
2021/09/02 08:14:46;;;;;;;12.65;6.32;;;;;;;20.20;56.55;102944.75;5043676;28;20119;-48
2021/09/02 08:17:12;;;;;;;10.88;5.80;;;;;;;20.03;53.46;102945.50;5069687;28;20023;-49
2021/09/02 08:19:37;;;;;;;12.68;6.63;;;;;;;20.05;56.34;102938.47;5048255;28;20070;-52
2021/09/02 08:22:03;;;;;;;15.65;6.30;;;;;;;20.09;54.89;102940.25;5070277;28;20077;-49
2021/09/02 08:24:28;;;;;;;14.93;6.32;;;;;;;20.14;55.22;102936.75;5046565;28;20476;-48
2021/09/02 08:26:53;;;;;;;16.25;6.13;;;;;;;20.05;55.61;102939.38;5069849;28;20051;-50
2021/09/02 08:29:19;;;;;;;12.43;6.30;;;;;;;20.18;53.58;102938.56;5071998;28;20028;-48
2021/09/02 08:31:45;;;;;;;15.07;6.18;;;;;;;20.27;53.10;102943.91;5067381;28;20150;-48
2021/09/02 08:34:10;;;;;;;12.27;6.07;;;;;;;20.09;54.69;102938.50;5070230;28;20174;-48
2021/09/02 08:36:35;;;;;;;11.90;5.90;;;;;;;20.20;54.88;102946.50;5067418;28;20042;-49
2021/09/02 08:39:01;;;;;;;22.88;6.15;;;;;;;20.22;53.60;102944.75;5064661;28;20393;-48
2021/09/02 08:41:26;;;;;;;20.77;7.50;;;;;;;20.23;55.88;102955.38;5067321;28;20474;-49
2021/09/02 08:43:53;;;;;;;15.73;6.90;;;;;;;20.36;56.06;102951.06;5063945;28;20140;-49
2021/09/02 08:46:19;;;;;;;24.23;10.07;;;;;;;19.97;58.03;102953.41;5069185;28;20834;-49
2021/09/02 08:48:46;;;;;;;32.45;10.30;;;;;;;20.04;58.35;102953.47;5054402;28;20028;-49
2021/09/02 08:51:12;;;;;;;22.45;10.40;;;;;;;20.22;58.03;102948.31;5054580;28;20149;-48
2021/09/02 08:53:37;;;;;;;23.70;11.30;;;;;;;20.29;58.18;102946.59;5067783;28;20047;-50
2021/09/02 08:56:04;;;;;;;27.88;12.05;;;;;;;20.09;58.67;102949.09;5048581;28;20067;-46
2021/09/02 08:58:32;;;;;;;23.35;11.25;;;;;;;20.36;58.39;102959.03;5068559;28;20023;-48
2021/09/02 09:00:57;;;;;;;31.17;12.45;;;;;;;20.05;59.46;102955.25;5066812;28;20157;-50
2021/09/02 09:03:24;;;;;;;29.52;12.73;;;;;;;20.27;59.39;102957.16;5067289;28;20035;-51
2021/09/02 09:05:54;;;;;;;29.88;12.63;;;;;;;20.13;59.42;102956.16;5068984;28;20024;-48
2021/09/02 09:08:19;;;;;;;30.13;12.63;;;;;;;20.15;59.21;102957.06;5068598;28;20528;-46
2021/09/02 09:10:45;;;;;;;26.90;12.25;;;;;;;20.35;58.47;102962.53;5072817;28;20035;-49
2021/09/02 09:13:11;;;;;;;28.73;12.50;;;;;;;20.21;58.59;102961.53;5067338;28;20087;-46
2021/09/02 09:15:39;;;;;;;26.25;12.10;;;;;;;20.31;58.68;102959.84;5069817;28;20035;-46
2021/09/02 09:18:24;;;;;;;27.38;12.10;;;;;;;20.23;58.82;102960.69;5065237;28;20312;-46
2021/09/02 09:21:18;;;;;;;25.60;12.52;;;;;;;20.16;59.46;102957.97;5048836;28;20526;-51
2021/09/02 09:23:53;;;;;;;27.23;12.52;;;;;;;19.76;60.06;102948.84;5047454;28;20116;-53
2021/09/02 09:26:19;;;;;;;29.90;12.38;;;;;;;19.76;60.59;102952.34;5066741;28;20085;-48
2021/09/02 09:28:44;;;;;;;26.50;12.18;;;;;;;20.00;60.67;102949.03;5072241;28;21338;-51
2021/09/02 09:31:31;;;;;;;28.80;12.45;;;;;;;19.88;59.84;102951.59;5068770;28;20024;-50
2021/09/02 09:33:58;;;;;;;29.08;11.82;;;;;;;19.79;60.17;102954.16;5067745;28;20047;-48
2021/09/02 09:36:26;;;;;;;25.83;11.50;;;;;;;20.04;60.72;102955.22;5063623;28;20040;-49
2021/09/02 09:39:02;;;;;;;25.15;10.90;;;;;;;20.05;59.92;102951.72;5066741;28;20119;-51
2021/09/02 09:41:35;;;;;;;22.33;10.88;;;;;;;20.29;59.49;102953.63;5063709;28;20035;-48
2021/09/02 09:44:17;;;;;;;22.10;11.05;;;;;;;20.26;59.22;102944.78;5069691;28;20028;-48
2021/09/02 09:46:42;;;;;;;22.63;11.00;;;;;;;20.50;58.62;102945.81;5068400;28;20032;-48
2021/09/02 09:49:08;;;;;;;25.40;10.55;;;;;;;20.70;57.32;102952.13;5067021;28;20395;-52
2021/09/02 09:51:33;;;;;;;20.95;10.10;;;;;;;20.72;55.90;102950.38;5072040;28;20365;-51
2021/09/02 09:53:58;;;;;;;21.50;10.10;;;;;;;20.85;55.80;102951.31;5045709;28;20868;-47
2021/09/02 09:56:25;;;;;;;21.88;10.18;;;;;;;20.77;55.43;102942.44;5071615;28;20162;-49
2021/09/02 09:58:52;;;;;;;26.30;11.05;;;;;;;20.45;55.93;102940.50;5067230;28;20125;-51
2021/09/02 10:01:18;;;;;;;20.23;10.27;;;;;;;20.62;56.36;102944.13;5050250;28;20538;-49
2021/09/02 10:03:45;;;;;;;19.50;9.77;;;;;;;20.83;56.65;102947.75;5069906;28;20096;-50
2021/09/02 10:06:12;;;;;;;24.55;10.27;;;;;;;21.06;57.16;102946.06;5050010;28;20462;-47
2021/09/02 10:08:40;;;;;;;24.08;9.75;;;;;;;21.19;57.18;102939.06;5064769;28;20024;-51
2021/09/02 10:11:09;;;;;;;22.17;9.68;;;;;;;21.21;55.60;102940.84;5066333;28;20345;-49
2021/09/02 10:13:35;;;;;;;22.63;9.90;;;;;;;21.31;57.02;102939.97;5070759;28;20275;-49
2021/09/02 10:16:01;;;;;;;18.73;9.40;;;;;;;21.43;55.45;102931.13;5072660;28;20376;-48
2021/09/02 10:18:28;;;;;;;25.75;10.02;;;;;;;21.35;54.81;102932.88;5059163;28;20297;-48
2021/09/02 10:20:53;;;;;;;22.50;10.15;;;;;;;21.46;55.09;102928.50;5050435;28;20016;-47
2021/09/02 10:23:24;;;;;;;24.77;9.68;;;;;;;21.86;54.88;102934.69;5031098;28;20240;-47
2021/09/02 10:25:50;;;;;;;19.38;9.35;;;;;;;22.16;54.98;102936.44;5068271;28;20021;-47
2021/09/02 10:28:30;;;;;;;19.48;8.88;;;;;;;22.38;54.59;102926.66;5063302;28;20073;-47
2021/09/02 10:31:01;;;;;;;12.60;6.43;;;;;;;22.36;49.43;102920.47;5070818;28;20031;-49
2021/09/02 10:33:41;;;;;;;11.95;6.07;;;;;;;22.58;49.02;102919.50;5066271;28;20035;-50
2021/09/02 10:36:19;;;;;;;12.85;6.32;;;;;;;22.66;48.30;102907.94;5071181;28;20048;-49
2021/09/02 10:38:49;;;;;;;12.07;6.18;;;;;;;22.76;46.52;102911.47;5065517;28;20095;-51
2021/09/02 10:41:45;;;;;;;16.60;6.78;;;;;;;23.04;45.76;102907.78;5071540;28;20020;-47
2021/09/02 10:44:12;;;;;;;11.52;6.28;;;;;;;23.06;45.16;102903.31;5067746;28;20028;-49
2021/09/02 10:46:45;;;;;;;11.88;6.10;;;;;;;22.95;44.98;102904.28;5065310;28;20123;-47
2021/09/02 10:49:18;;;;;;;11.93;6.03;;;;;;;22.82;45.13;102906.13;5068450;28;20446;-48
2021/09/02 10:51:46;;;;;;;12.27;6.07;;;;;;;23.13;45.11;102911.25;5072195;28;20024;-48
2021/09/02 10:54:14;;;;;;;12.77;6.22;;;;;;;23.01;44.56;102915.75;5064605;28;20028;-49
2021/09/02 10:56:57;;;;;;;14.18;6.38;;;;;;;22.95;45.26;102918.47;5067935;28;20036;-52
2021/09/02 10:59:58;;;;;;;14.73;6.63;;;;;;;22.83;47.04;102921.19;5067301;28;20548;-49
2021/09/02 11:02:23;;;;;;;13.95;6.38;;;;;;;22.67;48.05;102922.13;4967573;28;20062;-48
2021/09/02 11:05:15;;;;;;;15.43;6.13;;;;;;;22.66;49.15;102920.34;5043376;28;20756;-51
2021/09/02 11:07:50;;;;;;;12.80;6.45;;;;;;;22.83;47.37;102913.22;5058889;28;20048;-47
2021/09/02 11:10:20;;;;;;;12.88;6.32;;;;;;;22.97;49.94;102926.44;5071496;28;20028;-48
2021/09/02 11:12:47;;;;;;;13.35;7.18;;;;;;;22.57;47.35;102915.94;5049543;28;20427;-50
2021/09/02 11:15:22;;;;;;;17.42;7.43;;;;;;;22.29;49.73;102918.72;5069779;28;20070;-49